createdAt,value
2019-01-28T00:01:18.320Z,2.70
2019-01-28T00:05:26.413Z,2.70
2019-01-28T00:09:34.516Z,2.70
2019-01-28T00:13:42.629Z,2.70
2019-01-28T00:17:50.745Z,2.70
2019-01-28T00:21:58.841Z,2.70
2019-01-28T00:26:06.941Z,2.70
2019-01-28T00:30:15.052Z,2.70
2019-01-28T00:34:23.161Z,2.70
2019-01-28T00:38:31.269Z,2.70
2019-01-28T00:42:39.392Z,2.60
2019-01-28T00:46:47.476Z,2.60
2019-01-28T00:50:55.588Z,2.60
2019-01-28T00:55:04.218Z,2.50
2019-01-28T00:59:12.323Z,2.60
2019-01-28T01:03:20.412Z,2.60
2019-01-28T01:07:28.516Z,2.60
2019-01-28T01:11:36.612Z,2.60
2019-01-28T01:15:44.716Z,2.60
2019-01-28T01:19:52.832Z,2.60
2019-01-28T01:24:00.945Z,2.60
2019-01-28T01:28:09.143Z,2.60
2019-01-28T01:32:17.229Z,2.60
2019-01-28T01:36:25.333Z,2.60
2019-01-28T01:40:33.433Z,2.50
2019-01-28T01:44:41.552Z,2.60
2019-01-28T01:48:49.652Z,2.50
2019-01-28T01:52:57.745Z,2.50
2019-01-28T01:57:05.854Z,2.50
2019-01-28T02:01:13.957Z,2.50
2019-01-28T02:05:22.101Z,2.50
2019-01-28T02:09:35.860Z,2.50
2019-01-28T02:13:43.973Z,2.50
2019-01-28T02:17:52.080Z,2.50
2019-01-28T02:22:00.187Z,2.40
2019-01-28T02:26:08.294Z,2.40
2019-01-28T02:30:17.429Z,2.40
2019-01-28T02:34:25.556Z,2.40
2019-01-28T02:38:33.654Z,2.40
2019-01-28T02:42:41.789Z,2.40
2019-01-28T02:46:49.880Z,2.40
2019-01-28T02:50:57.985Z,2.30
2019-01-28T02:55:06.301Z,2.30
2019-01-28T02:59:14.394Z,2.30
2019-01-28T03:03:22.509Z,2.30
2019-01-28T03:07:30.623Z,2.30
2019-01-28T03:11:38.722Z,2.30
2019-01-28T03:15:46.826Z,2.30
2019-01-28T03:19:54.940Z,2.30
2019-01-28T03:24:03.049Z,2.30
2019-01-28T03:28:11.161Z,2.30
2019-01-28T03:32:19.288Z,2.30
2019-01-28T03:36:27.378Z,2.30
2019-01-28T03:40:35.491Z,2.30
2019-01-28T03:44:43.577Z,2.20
2019-01-28T03:48:52.879Z,2.20
2019-01-28T03:53:01.043Z,2.20
2019-01-28T03:57:09.191Z,2.20
2019-01-28T04:01:17.302Z,2.20
2019-01-28T04:05:25.410Z,2.20
2019-01-28T04:09:33.526Z,2.10
2019-01-28T04:13:41.632Z,2.10
2019-01-28T04:17:49.752Z,2.10
2019-01-28T04:21:57.866Z,2.10
2019-01-28T04:26:05.975Z,2.10
2019-01-28T04:30:16.557Z,2.00
2019-01-28T04:34:24.674Z,2.00
2019-01-28T04:38:32.775Z,2.00
2019-01-28T04:42:40.913Z,2.00
2019-01-28T04:46:49.000Z,2.00
2019-01-28T04:50:57.128Z,2.00
2019-01-28T04:55:05.534Z,2.00
2019-01-28T04:59:13.652Z,2.00
2019-01-28T05:03:21.757Z,1.90
2019-01-28T05:07:29.866Z,1.90
2019-01-28T05:11:38.045Z,1.90
2019-01-28T05:15:46.157Z,1.90
2019-01-28T05:19:54.269Z,1.90
2019-01-28T05:24:02.378Z,1.90
2019-01-28T05:28:10.482Z,1.90
2019-01-28T05:32:18.598Z,1.90
2019-01-28T05:36:26.708Z,1.90
2019-01-28T05:40:34.812Z,1.90
2019-01-28T05:44:42.929Z,1.90
2019-01-28T05:48:51.030Z,1.90
2019-01-28T05:52:59.134Z,1.90
2019-01-28T05:57:08.673Z,1.90
2019-01-28T06:01:15.353Z,1.90
2019-01-28T06:05:23.468Z,2.00
2019-01-28T06:09:31.570Z,2.00
2019-01-28T06:13:39.667Z,2.00
2019-01-28T06:17:47.780Z,2.00
2019-01-28T06:21:55.878Z,2.00
2019-01-28T06:26:03.998Z,2.00
2019-01-28T06:30:15.508Z,2.00
2019-01-28T06:34:23.614Z,2.10
2019-01-28T06:38:31.770Z,2.00
2019-01-28T06:42:39.870Z,2.00
2019-01-28T06:46:47.978Z,2.00
2019-01-28T06:50:56.095Z,2.00
2019-01-28T06:55:05.109Z,2.10
2019-01-28T06:59:13.227Z,2.10
2019-01-28T07:03:21.449Z,2.10
2019-01-28T07:07:29.541Z,2.10
2019-01-28T07:11:37.686Z,2.10
2019-01-28T07:15:45.805Z,2.10
2019-01-28T07:19:53.953Z,2.10
2019-01-28T07:24:02.073Z,2.10
2019-01-28T07:28:10.198Z,2.10
2019-01-28T07:32:18.293Z,2.10
2019-01-28T07:36:26.394Z,2.20
2019-01-28T07:40:34.528Z,2.20
2019-01-28T07:44:42.631Z,2.20
2019-01-28T07:48:50.745Z,2.20
2019-01-28T07:52:58.853Z,2.20
2019-01-28T07:57:06.978Z,2.20
2019-01-28T08:01:15.094Z,2.30
2019-01-28T08:05:23.227Z,2.30
2019-01-28T08:09:31.342Z,2.30
2019-01-28T08:13:39.457Z,2.30
2019-01-28T08:17:47.905Z,2.40
2019-01-28T08:21:56.015Z,2.40
2019-01-28T08:26:04.234Z,2.50
2019-01-28T08:30:19.261Z,2.50
2019-01-28T08:34:27.360Z,2.50
2019-01-28T08:38:35.470Z,2.50
2019-01-28T08:42:43.581Z,2.60
2019-01-28T08:46:51.678Z,2.60
2019-01-28T08:50:59.789Z,2.70
2019-01-28T08:55:14.401Z,2.80
2019-01-28T08:59:18.422Z,3.00
2019-01-28T09:03:26.526Z,3.10
2019-01-28T09:07:34.669Z,3.10
2019-01-28T09:11:42.794Z,3.00
2019-01-28T09:15:50.906Z,3.00
2019-01-28T09:19:59.140Z,3.10
2019-01-28T09:24:07.167Z,3.30
2019-01-28T09:28:15.261Z,3.50
2019-01-28T09:32:23.372Z,3.60
2019-01-28T09:36:31.493Z,3.60
2019-01-28T09:40:39.625Z,3.80
2019-01-28T09:44:47.735Z,3.90
2019-01-28T09:48:55.846Z,4.00
2019-01-28T09:53:03.954Z,4.00
2019-01-28T09:57:12.069Z,4.10
2019-01-28T10:01:20.210Z,4.20
2019-01-28T10:05:28.334Z,4.30
2019-01-28T10:09:36.461Z,4.50
2019-01-28T10:13:44.565Z,4.50
2019-01-28T10:17:52.689Z,4.70
2019-01-28T10:22:00.845Z,4.80
2019-01-28T10:26:08.979Z,4.90
2019-01-28T10:30:19.842Z,4.90
2019-01-28T10:34:27.953Z,4.90
2019-01-28T10:38:36.078Z,4.70
2019-01-28T10:42:44.193Z,4.60
2019-01-28T10:46:52.307Z,4.40
2019-01-28T10:51:00.504Z,4.20
2019-01-28T10:55:08.819Z,4.20
2019-01-28T10:59:16.968Z,4.20
2019-01-28T11:03:25.730Z,4.20
2019-01-28T11:07:33.859Z,4.40
2019-01-28T11:11:42.494Z,4.60
2019-01-28T11:15:50.161Z,4.70
2019-01-28T11:19:58.242Z,4.60
2019-01-28T11:24:06.340Z,4.70
2019-01-28T11:28:14.560Z,4.80
2019-01-28T11:32:22.643Z,4.80
2019-01-28T11:36:30.776Z,4.90
2019-01-28T11:40:38.838Z,5.10
2019-01-28T11:44:46.928Z,5.40
2019-01-28T11:48:55.111Z,5.70
2019-01-28T11:53:03.163Z,5.70
2019-01-28T11:57:11.274Z,6.00
2019-01-28T12:01:29.782Z,6.00
2019-01-28T12:05:37.890Z,6.10
2019-01-28T12:09:46.005Z,5.90
2019-01-28T12:13:54.129Z,5.90
2019-01-28T12:18:02.246Z,6.00
2019-01-28T12:22:10.373Z,6.10
2019-01-28T12:26:18.483Z,6.20
2019-01-28T12:30:32.051Z,6.10
2019-01-28T12:34:40.158Z,5.90
2019-01-28T12:38:48.263Z,6.00
2019-01-28T12:42:56.380Z,6.30
2019-01-28T12:47:04.530Z,6.70
2019-01-28T12:51:12.655Z,6.40
2019-01-28T12:55:20.785Z,6.10
2019-01-28T12:59:28.902Z,5.90
2019-01-28T13:03:37.098Z,5.70
2019-01-28T13:07:45.209Z,5.40
2019-01-28T13:11:53.322Z,5.20
2019-01-28T13:16:01.508Z,5.10
2019-01-28T13:20:09.645Z,4.90
2019-01-28T13:24:17.770Z,4.70
2019-01-28T13:28:25.893Z,4.60
2019-01-28T13:32:34.014Z,4.60
2019-01-28T13:36:42.140Z,4.80
2019-01-28T13:40:50.241Z,4.90
2019-01-28T13:44:58.349Z,4.80
2019-01-28T13:49:06.490Z,4.60
2019-01-28T13:53:14.598Z,4.60
2019-01-28T13:57:22.719Z,4.90
2019-01-28T14:01:30.888Z,4.80
2019-01-28T14:05:38.997Z,4.60
2019-01-28T14:09:47.115Z,4.50
2019-01-28T14:13:55.250Z,4.50
2019-01-28T14:18:03.434Z,4.50
2019-01-28T14:22:11.537Z,4.60
2019-01-28T14:26:19.651Z,4.70
2019-01-28T14:30:32.526Z,4.80
2019-01-28T14:34:40.637Z,5.00
2019-01-28T14:38:48.751Z,5.10
2019-01-28T14:42:56.867Z,5.30
2019-01-28T14:47:04.986Z,5.40
2019-01-28T14:51:13.115Z,5.60
2019-01-28T14:55:21.268Z,5.50
2019-01-28T14:59:29.383Z,5.30
2019-01-28T15:03:37.486Z,5.20
2019-01-28T15:07:45.622Z,4.90
2019-01-28T15:11:54.467Z,4.70
2019-01-28T15:16:01.943Z,4.40
2019-01-28T15:20:10.079Z,4.20
2019-01-28T15:24:18.189Z,3.90
2019-01-28T15:28:26.373Z,3.70
2019-01-28T15:32:34.497Z,3.50
2019-01-28T15:36:42.615Z,3.30
2019-01-28T15:40:50.721Z,3.20
2019-01-28T15:44:58.841Z,3.10
2019-01-28T15:49:06.985Z,3.00
2019-01-28T15:53:15.074Z,2.90
2019-01-28T15:57:23.181Z,2.80
2019-01-28T16:01:31.290Z,2.70
2019-01-28T16:05:39.398Z,2.70
2019-01-28T16:09:47.521Z,2.70
2019-01-28T16:13:55.654Z,2.60
2019-01-28T16:18:08.641Z,2.60
2019-01-28T16:22:11.887Z,2.50
2019-01-28T16:26:19.993Z,2.50
2019-01-28T16:30:28.141Z,2.50
2019-01-28T16:34:36.250Z,2.50
2019-01-28T16:38:44.368Z,2.60
2019-01-28T16:42:52.470Z,2.60
2019-01-28T16:47:00.580Z,2.60
2019-01-28T16:51:08.718Z,2.70
2019-01-28T16:55:16.803Z,2.70
2019-01-28T16:59:24.914Z,2.80
2019-01-28T17:03:33.018Z,2.80
2019-01-28T17:07:41.118Z,2.90
2019-01-28T17:11:49.226Z,2.80
2019-01-28T17:15:57.339Z,2.80
2019-01-28T17:20:06.570Z,2.80
2019-01-28T17:24:14.674Z,2.80
2019-01-28T17:28:22.801Z,2.80
2019-01-28T17:32:30.897Z,2.90
2019-01-28T17:36:39.025Z,2.90
2019-01-28T17:40:47.160Z,2.80
2019-01-28T17:44:55.273Z,2.80
2019-01-28T17:49:03.393Z,2.80
2019-01-28T17:53:11.485Z,2.80
2019-01-28T17:57:19.602Z,2.80
2019-01-28T18:01:27.729Z,2.70
2019-01-28T18:05:35.841Z,2.70
2019-01-28T18:09:44.035Z,2.60
2019-01-28T18:13:52.198Z,2.60
2019-01-28T18:18:00.313Z,2.60
2019-01-28T18:22:08.437Z,2.70
2019-01-28T18:26:16.566Z,2.60
2019-01-28T18:30:29.226Z,2.60
2019-01-28T18:34:37.330Z,2.60
2019-01-28T18:38:45.486Z,2.60
2019-01-28T18:42:53.650Z,2.60
2019-01-28T18:47:01.767Z,2.50
2019-01-28T18:51:09.865Z,2.50
2019-01-28T18:55:18.042Z,2.50
2019-01-28T18:59:26.346Z,2.50
2019-01-28T19:03:34.577Z,2.50
2019-01-28T19:07:46.962Z,2.50
2019-01-28T19:13:04.777Z,2.50
2019-01-28T19:19:23.330Z,2.50
2019-01-28T19:23:31.449Z,2.40
2019-01-28T19:27:39.564Z,2.30
2019-01-28T19:31:47.721Z,2.30
2019-01-28T19:35:55.850Z,2.40
2019-01-28T19:40:04.825Z,2.40
2019-01-28T19:44:13.020Z,2.40
2019-01-28T19:48:21.269Z,2.50
2019-01-28T19:52:29.398Z,2.50
2019-01-28T19:56:37.527Z,2.40
2019-01-28T20:00:45.654Z,2.40
2019-01-28T20:04:53.791Z,2.40
2019-01-28T20:09:01.943Z,2.40
2019-01-28T20:13:10.086Z,2.40
2019-01-28T20:17:18.214Z,2.40
2019-01-28T20:21:26.344Z,2.40
2019-01-28T20:25:35.736Z,2.40
2019-01-28T20:29:42.887Z,2.40
2019-01-28T20:33:51.034Z,2.40
2019-01-28T20:37:59.163Z,2.40
2019-01-28T20:42:07.286Z,2.40
2019-01-28T20:46:15.421Z,2.50
2019-01-28T20:50:25.190Z,2.50
2019-01-28T20:54:33.392Z,2.40
2019-01-28T20:58:41.519Z,2.50
2019-01-28T21:02:49.654Z,2.40
2019-01-28T21:06:57.780Z,2.40
2019-01-28T21:11:05.936Z,2.40
2019-01-28T21:15:14.961Z,2.40
2019-01-28T21:19:23.077Z,2.40
2019-01-28T21:23:31.206Z,2.40
2019-01-28T21:27:39.316Z,2.40
2019-01-28T21:31:47.461Z,2.50
2019-01-28T21:36:08.973Z,2.50
2019-01-28T21:40:17.108Z,2.40
2019-01-28T21:44:25.233Z,2.40
2019-01-28T21:48:33.357Z,2.50
2019-01-28T21:52:41.494Z,2.50
2019-01-28T21:56:49.605Z,2.50
2019-01-28T22:00:57.698Z,2.40
2019-01-28T22:05:06.198Z,2.40
2019-01-28T22:09:14.326Z,2.40
2019-01-28T22:13:22.477Z,2.40
2019-01-28T22:17:30.646Z,2.40
2019-01-28T22:21:38.838Z,2.30
2019-01-28T22:25:46.961Z,2.20
2019-01-28T22:29:55.099Z,2.10
2019-01-28T22:34:03.254Z,2.10
2019-01-28T22:38:11.369Z,2.00
2019-01-28T22:42:21.434Z,2.00
2019-01-28T22:46:27.772Z,2.00
2019-01-28T22:50:35.970Z,2.10
2019-01-28T22:54:44.077Z,2.10
2019-01-28T22:58:52.280Z,2.20
2019-01-28T23:03:00.622Z,2.20
2019-01-28T23:07:08.819Z,2.20
2019-01-28T23:11:16.922Z,2.20
2019-01-28T23:15:25.058Z,2.20
2019-01-28T23:19:33.194Z,2.20
2019-01-28T23:23:41.299Z,2.30
2019-01-28T23:27:49.425Z,2.30
2019-01-28T23:31:57.522Z,2.30
2019-01-28T23:36:05.636Z,2.30
2019-01-28T23:40:13.751Z,2.30
2019-01-28T23:44:21.881Z,2.30
2019-01-28T23:48:30.001Z,2.30
2019-01-28T23:52:38.130Z,2.30
2019-01-28T23:56:46.246Z,2.30
